IBE31AA EDDF-LEMD
Flight info
| Callsign | IBE31AA |
|---|---|
| Flight time | 2h 12m |
| Altitude | 33000 |
| Route | ANEKI3F/25C ANEKI Y163 HERBI Y164 MOPAN LUTIX BENOT NEMOS NINTU MEBAK REPSI LERGA MINSO NARAK AGN MAQAB TIVLI N869 ZAR Z245 TERSA |
| Aircraft | A320/M-SDE3FGHIRWY/LB1 |
Departure
| Time | 2026-05-04 07:38 |
|---|---|
| Airport | Frankfurt Main Airport (EDDF) |
Arrival
| Time | 2026-05-04 09:51 |
|---|---|
| Airport | Adolfo Suárez Madrid–Barajas Airport (LEMD) |
| Time | Latitude | Longitude | Altitude | Speed | Heading |
|---|---|---|---|---|---|
| 2026-05-04 07:22 | 50.04877 | 8.59048 | 368 ft | 0 kts | 339° |
| 2026-05-04 07:30 | 50.04876 | 8.59049 | 365 ft | 2 kts | 339° |
| 2026-05-04 07:30 | 50.04852 | 8.59063 | 368 ft | 4 kts | 339° |
| 2026-05-04 07:30 | 50.04828 | 8.59077 | 370 ft | 4 kts | 339° |
| 2026-05-04 07:30 | 50.04803 | 8.59092 | 368 ft | 4 kts | 339° |
| 2026-05-04 07:31 | 50.04798 | 8.59095 | 371 ft | 2 kts | 339° |
| 2026-05-04 07:34 | 50.04804 | 8.59084 | 369 ft | 4 kts | 302° |
| 2026-05-04 07:34 | 50.04784 | 8.58970 | 371 ft | 13 kts | 247° |
| 2026-05-04 07:35 | 50.04746 | 8.58835 | 369 ft | 14 kts | 245° |
| 2026-05-04 07:35 | 50.04679 | 8.58758 | 370 ft | 7 kts | 191° |
| 2026-05-04 07:35 | 50.04638 | 8.58751 | 370 ft | 5 kts | 186° |
| 2026-05-04 07:35 | 50.04581 | 8.58722 | 371 ft | 11 kts | 217° |
| 2026-05-04 07:36 | 50.04520 | 8.58654 | 371 ft | 11 kts | 212° |
| 2026-05-04 07:36 | 50.04485 | 8.58578 | 370 ft | 2 kts | 250° |
| 2026-05-04 07:38 | 50.04334 | 8.57952 | 367 ft | 91 kts | 249° |
| 2026-05-04 07:38 | 50.04044 | 8.56746 | 359 ft | 144 kts | 250° |
| 2026-05-04 07:38 | 50.03666 | 8.55109 | 659 ft | 159 kts | 251° |
| 2026-05-04 07:38 | 50.03310 | 8.53516 | 1425 ft | 158 kts | 249° |
| 2026-05-04 07:39 | 50.02904 | 8.51861 | 1907 ft | 173 kts | 246° |
| 2026-05-04 07:39 | 50.02097 | 8.50371 | 2182 ft | 195 kts | 212° |
| 2026-05-04 07:39 | 50.00773 | 8.49575 | 2574 ft | 210 kts | 199° |
| 2026-05-04 07:39 | 49.99336 | 8.49061 | 3237 ft | 216 kts | 180° |
| 2026-05-04 07:40 | 49.97935 | 8.49780 | 3976 ft | 223 kts | 144° |
| 2026-05-04 07:40 | 49.96849 | 8.51598 | 4737 ft | 228 kts | 135° |
| 2026-05-04 07:40 | 49.95544 | 8.52945 | 5292 ft | 235 kts | 167° |
| 2026-05-04 07:40 | 49.93864 | 8.53179 | 5635 ft | 254 kts | 183° |
| 2026-05-04 07:41 | 49.92069 | 8.53202 | 6257 ft | 266 kts | 181° |
| 2026-05-04 07:41 | 49.90201 | 8.53289 | 7060 ft | 270 kts | 180° |
| 2026-05-04 07:41 | 49.88316 | 8.53412 | 7912 ft | 273 kts | 180° |
| 2026-05-04 07:41 | 49.86403 | 8.53550 | 8740 ft | 276 kts | 180° |
| 2026-05-04 07:42 | 49.84472 | 8.53689 | 9574 ft | 279 kts | 180° |
| 2026-05-04 07:42 | 49.82522 | 8.53831 | 10344 ft | 283 kts | 180° |
| 2026-05-04 07:42 | 49.80478 | 8.53974 | 10627 ft | 306 kts | 180° |
| 2026-05-04 07:42 | 49.78239 | 8.54105 | 10832 ft | 328 kts | 183° |
| 2026-05-04 07:43 | 49.75923 | 8.53836 | 11318 ft | 338 kts | 187° |
| 2026-05-04 07:43 | 49.73567 | 8.53520 | 11991 ft | 342 kts | 187° |
| 2026-05-04 07:43 | 49.71151 | 8.53200 | 12696 ft | 346 kts | 187° |
| 2026-05-04 07:43 | 49.68742 | 8.52883 | 13392 ft | 349 kts | 187° |
| 2026-05-04 07:44 | 49.66313 | 8.52563 | 14067 ft | 352 kts | 187° |
| 2026-05-04 07:44 | 49.63890 | 8.52243 | 14680 ft | 355 kts | 187° |
| 2026-05-04 07:44 | 49.61419 | 8.51919 | 15310 ft | 357 kts | 186° |
| 2026-05-04 07:44 | 49.58933 | 8.51594 | 15944 ft | 359 kts | 186° |
| 2026-05-04 07:45 | 49.56435 | 8.51268 | 16562 ft | 362 kts | 186° |
| 2026-05-04 07:45 | 49.53915 | 8.50942 | 17175 ft | 364 kts | 186° |
| 2026-05-04 07:45 | 49.51387 | 8.50612 | 17781 ft | 366 kts | 186° |
| 2026-05-04 07:45 | 49.48877 | 8.50280 | 18364 ft | 368 kts | 186° |
| 2026-05-04 07:46 | 49.46242 | 8.49934 | 18873 ft | 371 kts | 186° |
| 2026-05-04 07:46 | 49.43655 | 8.49597 | 19360 ft | 374 kts | 186° |
| 2026-05-04 07:46 | 49.41057 | 8.49262 | 19840 ft | 376 kts | 187° |
| 2026-05-04 07:46 | 49.38438 | 8.48920 | 20323 ft | 379 kts | 187° |
| 2026-05-04 07:47 | 49.35802 | 8.48572 | 20798 ft | 382 kts | 187° |
| 2026-05-04 07:47 | 49.33144 | 8.48223 | 21259 ft | 384 kts | 187° |
| 2026-05-04 07:47 | 49.30474 | 8.47874 | 21714 ft | 387 kts | 187° |
| 2026-05-04 07:49 | 49.11230 | 8.45377 | 24582 ft | 404 kts | 187° |
| 2026-05-04 07:49 | 49.08421 | 8.45014 | 24935 ft | 406 kts | 187° |
| 2026-05-04 07:49 | 49.05614 | 8.44487 | 25281 ft | 406 kts | 194° |
| 2026-05-04 07:50 | 49.02858 | 8.43532 | 25627 ft | 407 kts | 195° |
| 2026-05-04 07:50 | 49.00093 | 8.42565 | 25966 ft | 409 kts | 195° |
| 2026-05-04 07:50 | 48.97309 | 8.41594 | 26326 ft | 411 kts | 195° |
| 2026-05-04 07:50 | 48.94518 | 8.40625 | 26677 ft | 412 kts | 195° |
| 2026-05-04 07:51 | 48.91716 | 8.39651 | 27022 ft | 414 kts | 195° |
| 2026-05-04 07:51 | 48.88902 | 8.38674 | 27360 ft | 416 kts | 195° |
| 2026-05-04 07:51 | 48.86071 | 8.37688 | 27687 ft | 418 kts | 195° |
| 2026-05-04 07:51 | 48.83236 | 8.36706 | 28008 ft | 419 kts | 195° |
| 2026-05-04 07:52 | 48.80383 | 8.35723 | 28325 ft | 421 kts | 195° |
| 2026-05-04 07:52 | 48.77519 | 8.34733 | 28622 ft | 423 kts | 195° |
| 2026-05-04 07:52 | 48.74647 | 8.33709 | 28926 ft | 424 kts | 195° |
| 2026-05-04 07:52 | 48.71775 | 8.32660 | 29219 ft | 426 kts | 195° |
| 2026-05-04 07:53 | 48.68888 | 8.31593 | 29486 ft | 428 kts | 196° |
| 2026-05-04 07:54 | 48.48714 | 8.24226 | 31903 ft | 421 kts | 196° |
| 2026-05-04 07:55 | 48.45870 | 8.23201 | 32266 ft | 419 kts | 196° |
| 2026-05-04 07:55 | 48.43038 | 8.22170 | 32631 ft | 418 kts | 196° |
| 2026-05-04 07:55 | 48.40257 | 8.21151 | 32951 ft | 417 kts | 196° |
| 2026-05-04 07:55 | 48.37438 | 8.20117 | 33027 ft | 415 kts | 196° |
| 2026-05-04 07:56 | 48.31850 | 8.18081 | 33033 ft | 413 kts | 196° |
| 2026-05-04 07:56 | 48.26268 | 8.16052 | 33030 ft | 412 kts | 198° |
| 2026-05-04 07:57 | 48.21011 | 8.12773 | 33030 ft | 409 kts | 208° |
| 2026-05-04 07:57 | 48.15916 | 8.08982 | 33033 ft | 409 kts | 208° |
| 2026-05-04 07:58 | 48.10819 | 8.05221 | 33033 ft | 409 kts | 208° |
| 2026-05-04 07:58 | 48.05716 | 8.01467 | 33034 ft | 408 kts | 208° |
| 2026-05-04 07:59 | 48.00618 | 7.97729 | 33033 ft | 408 kts | 208° |
| 2026-05-04 07:59 | 47.95529 | 7.93996 | 33033 ft | 408 kts | 208° |
| 2026-05-04 08:00 | 47.90434 | 7.90262 | 33028 ft | 408 kts | 208° |
| 2026-05-04 08:02 | 47.69969 | 7.75375 | 33036 ft | 409 kts | 207° |
| 2026-05-04 08:02 | 47.64858 | 7.71670 | 33041 ft | 409 kts | 207° |
| 2026-05-04 08:03 | 47.59738 | 7.67967 | 33041 ft | 409 kts | 207° |
| 2026-05-04 08:03 | 47.54618 | 7.64272 | 33029 ft | 409 kts | 208° |
| 2026-05-04 08:04 | 47.49494 | 7.60593 | 33034 ft | 409 kts | 208° |
| 2026-05-04 08:04 | 47.44369 | 7.56921 | 33037 ft | 410 kts | 208° |
| 2026-05-04 08:05 | 47.39243 | 7.53242 | 33037 ft | 410 kts | 208° |
| 2026-05-04 08:05 | 47.34112 | 7.49577 | 33038 ft | 410 kts | 207° |
| 2026-05-04 08:06 | 47.28981 | 7.45934 | 33057 ft | 409 kts | 208° |
| 2026-05-04 08:06 | 47.23867 | 7.42296 | 33057 ft | 408 kts | 208° |
| 2026-05-04 08:08 | 47.09248 | 7.23678 | 33048 ft | 403 kts | 231° |
| 2026-05-04 08:08 | 47.08090 | 7.21547 | 33046 ft | 403 kts | 231° |
| 2026-05-04 08:11 | 46.92321 | 6.92732 | 33061 ft | 402 kts | 230° |
| 2026-05-04 08:11 | 46.87058 | 6.83177 | 33061 ft | 402 kts | 230° |
| 2026-05-04 08:12 | 46.83543 | 6.76813 | 33057 ft | 402 kts | 230° |
| 2026-05-04 08:12 | 46.80020 | 6.70459 | 33051 ft | 403 kts | 230° |
| 2026-05-04 08:13 | 46.76489 | 6.64105 | 33037 ft | 403 kts | 230° |
| 2026-05-04 08:13 | 46.72958 | 6.57762 | 33037 ft | 403 kts | 230° |
| 2026-05-04 08:14 | 46.69415 | 6.51424 | 33029 ft | 403 kts | 230° |
| 2026-05-04 08:16 | 46.55275 | 6.26258 | 33046 ft | 401 kts | 229° |
| 2026-05-04 08:16 | 46.51732 | 6.19987 | 33041 ft | 401 kts | 229° |
| 2026-05-04 08:17 | 46.48167 | 6.13692 | 33035 ft | 401 kts | 229° |
| 2026-05-04 08:17 | 46.44647 | 6.07482 | 33034 ft | 401 kts | 229° |
| 2026-05-04 08:19 | 46.30416 | 5.82530 | 33040 ft | 402 kts | 228° |
| 2026-05-04 08:20 | 46.26845 | 5.76315 | 33040 ft | 402 kts | 228° |
| 2026-05-04 08:20 | 46.23245 | 5.70059 | 33041 ft | 402 kts | 228° |
| 2026-05-04 08:21 | 46.19661 | 5.63842 | 33033 ft | 402 kts | 228° |
| 2026-05-04 08:21 | 46.16071 | 5.57643 | 33058 ft | 402 kts | 228° |
| 2026-05-04 08:22 | 46.12729 | 5.51159 | 33023 ft | 404 kts | 233° |
| 2026-05-04 08:24 | 45.99932 | 5.24519 | 33036 ft | 404 kts | 232° |
| 2026-05-04 08:24 | 45.96720 | 5.17884 | 33037 ft | 404 kts | 232° |
| 2026-05-04 08:25 | 45.93522 | 5.11300 | 33061 ft | 405 kts | 232° |
| 2026-05-04 08:25 | 45.90291 | 5.04662 | 33043 ft | 405 kts | 232° |
| 2026-05-04 08:27 | 45.77299 | 4.78084 | 33056 ft | 408 kts | 231° |
| 2026-05-04 08:28 | 45.74030 | 4.71435 | 33051 ft | 408 kts | 231° |
| 2026-05-04 08:28 | 45.70732 | 4.64757 | 33027 ft | 408 kts | 231° |
| 2026-05-04 08:29 | 45.67454 | 4.58127 | 33014 ft | 409 kts | 232° |
| 2026-05-04 08:31 | 45.54283 | 4.31601 | 33017 ft | 409 kts | 231° |
| 2026-05-04 08:33 | 45.41073 | 4.05292 | 33032 ft | 408 kts | 231° |
| 2026-05-04 08:35 | 45.27822 | 3.79132 | 33042 ft | 407 kts | 231° |
| 2026-05-04 08:35 | 45.24505 | 3.72621 | 33034 ft | 406 kts | 232° |
| 2026-05-04 08:37 | 45.13218 | 3.49652 | 33005 ft | 406 kts | 232° |
| 2026-05-04 08:38 | 45.09968 | 3.43118 | 33008 ft | 406 kts | 232° |
| 2026-05-04 08:38 | 45.06727 | 3.36582 | 33009 ft | 406 kts | 232° |
| 2026-05-04 08:40 | 44.93696 | 3.10525 | 33002 ft | 406 kts | 232° |
| 2026-05-04 08:41 | 44.90428 | 3.04029 | 33037 ft | 406 kts | 232° |
| 2026-05-04 08:41 | 44.87164 | 2.97539 | 33030 ft | 406 kts | 232° |
| 2026-05-04 08:42 | 44.83912 | 2.91041 | 33025 ft | 406 kts | 233° |
| 2026-05-04 08:42 | 44.80819 | 2.84392 | 33014 ft | 406 kts | 234° |
| 2026-05-04 08:43 | 44.77792 | 2.77674 | 33016 ft | 406 kts | 234° |
| 2026-05-04 08:43 | 44.74745 | 2.70992 | 33005 ft | 406 kts | 234° |
| 2026-05-04 08:44 | 44.71664 | 2.64349 | 33026 ft | 406 kts | 234° |
| 2026-05-04 08:46 | 44.59316 | 2.37855 | 32993 ft | 406 kts | 233° |
| 2026-05-04 08:46 | 44.56215 | 2.31246 | 32984 ft | 405 kts | 234° |
| 2026-05-04 08:47 | 44.53113 | 2.24646 | 33016 ft | 405 kts | 233° |
| 2026-05-04 08:47 | 44.50009 | 2.18053 | 33008 ft | 405 kts | 234° |
| 2026-05-04 08:48 | 44.46909 | 2.11467 | 33002 ft | 405 kts | 234° |
| 2026-05-04 08:48 | 44.43801 | 2.04889 | 32996 ft | 405 kts | 233° |
| 2026-05-04 08:49 | 44.40690 | 1.98331 | 32985 ft | 404 kts | 233° |
| 2026-05-04 08:50 | 44.29796 | 1.75445 | 32963 ft | 405 kts | 233° |
| 2026-05-04 08:51 | 44.26707 | 1.68848 | 32964 ft | 407 kts | 234° |
| 2026-05-04 08:51 | 44.23674 | 1.62186 | 32957 ft | 407 kts | 235° |
| 2026-05-04 08:52 | 44.20639 | 1.55525 | 32951 ft | 407 kts | 235° |
| 2026-05-04 08:52 | 44.18099 | 1.50004 | 32980 ft | 407 kts | 235° |
| 2026-05-04 08:54 | 44.05802 | 1.23533 | 32972 ft | 408 kts | 235° |
| 2026-05-04 08:55 | 44.02711 | 1.16929 | 32962 ft | 407 kts | 235° |
| 2026-05-04 08:55 | 43.99630 | 1.10341 | 33001 ft | 406 kts | 236° |
| 2026-05-04 09:01 | 43.59943 | 0.51740 | 32982 ft | 397 kts | 222° |
| 2026-05-04 09:01 | 43.55809 | 0.46689 | 32979 ft | 397 kts | 222° |
| 2026-05-04 09:02 | 43.51673 | 0.41655 | 32987 ft | 396 kts | 222° |
| 2026-05-04 09:02 | 43.47540 | 0.36630 | 32995 ft | 396 kts | 221° |
| 2026-05-04 09:03 | 43.43409 | 0.31611 | 32986 ft | 396 kts | 221° |
| 2026-05-04 09:03 | 43.39285 | 0.26591 | 32972 ft | 395 kts | 222° |
| 2026-05-04 09:04 | 43.35161 | 0.21594 | 32977 ft | 395 kts | 222° |
| 2026-05-04 09:04 | 43.31032 | 0.16615 | 32978 ft | 395 kts | 222° |
| 2026-05-04 09:05 | 43.26905 | 0.11650 | 32976 ft | 394 kts | 222° |
| 2026-05-04 09:05 | 43.22780 | 0.06694 | 32954 ft | 394 kts | 222° |
| 2026-05-04 09:06 | 43.18658 | 0.01740 | 32977 ft | 394 kts | 222° |
| 2026-05-04 09:08 | 43.02225 | -0.17912 | 32970 ft | 391 kts | 222° |
| 2026-05-04 09:08 | 42.98134 | -0.22777 | 32975 ft | 389 kts | 222° |
| 2026-05-04 09:09 | 42.94055 | -0.27623 | 33002 ft | 389 kts | 221° |
| 2026-05-04 09:09 | 42.89984 | -0.32460 | 32982 ft | 387 kts | 222° |
| 2026-05-04 09:10 | 42.85910 | -0.37278 | 32981 ft | 387 kts | 221° |
| 2026-05-04 09:10 | 42.81823 | -0.42057 | 32978 ft | 387 kts | 218° |
| 2026-05-04 09:11 | 42.77058 | -0.45488 | 32967 ft | 391 kts | 204° |
| 2026-05-04 09:11 | 42.71980 | -0.48150 | 32964 ft | 391 kts | 205° |
| 2026-05-04 09:12 | 42.66904 | -0.50826 | 32971 ft | 391 kts | 205° |
| 2026-05-04 09:14 | 42.46634 | -0.61452 | 32969 ft | 390 kts | 205° |
| 2026-05-04 09:14 | 42.41580 | -0.64094 | 32976 ft | 390 kts | 205° |
| 2026-05-04 09:15 | 42.36549 | -0.66715 | 32951 ft | 389 kts | 205° |
| 2026-05-04 09:15 | 42.31494 | -0.69339 | 32973 ft | 389 kts | 205° |
| 2026-05-04 09:17 | 42.08982 | -0.81606 | 32996 ft | 387 kts | 218° |
| 2026-05-04 09:18 | 42.04582 | -0.85945 | 32996 ft | 394 kts | 218° |
| 2026-05-04 09:18 | 42.00166 | -0.90333 | 33000 ft | 394 kts | 218° |
| 2026-05-04 09:19 | 41.95759 | -0.94708 | 32990 ft | 394 kts | 218° |
| 2026-05-04 09:19 | 41.91336 | -0.99070 | 32984 ft | 394 kts | 218° |
| 2026-05-04 09:20 | 41.86915 | -1.03435 | 32981 ft | 394 kts | 218° |
| 2026-05-04 09:20 | 41.82496 | -1.07792 | 32972 ft | 394 kts | 218° |
| 2026-05-04 09:21 | 41.78077 | -1.12137 | 32975 ft | 394 kts | 218° |
| 2026-05-04 09:21 | 41.73788 | -1.16645 | 32994 ft | 390 kts | 229° |
| 2026-05-04 09:22 | 41.72271 | -1.19648 | 32989 ft | 391 kts | 242° |
| 2026-05-04 09:22 | 41.71088 | -1.22923 | 32980 ft | 391 kts | 242° |
| 2026-05-04 09:22 | 41.68739 | -1.29502 | 32974 ft | 392 kts | 242° |
| 2026-05-04 09:23 | 41.66406 | -1.36052 | 32978 ft | 393 kts | 242° |
| 2026-05-04 09:23 | 41.64043 | -1.42631 | 32974 ft | 393 kts | 242° |
| 2026-05-04 09:25 | 41.54544 | -1.68909 | 32943 ft | 393 kts | 242° |
| 2026-05-04 09:26 | 41.53348 | -1.72192 | 32780 ft | 393 kts | 242° |
| 2026-05-04 09:26 | 41.52152 | -1.75474 | 32512 ft | 393 kts | 242° |
| 2026-05-04 09:26 | 41.50954 | -1.78759 | 32250 ft | 394 kts | 242° |
| 2026-05-04 09:26 | 41.49757 | -1.82046 | 31985 ft | 395 kts | 242° |
| 2026-05-04 09:27 | 41.48557 | -1.85348 | 31734 ft | 396 kts | 242° |
| 2026-05-04 09:27 | 41.47352 | -1.88654 | 31496 ft | 396 kts | 242° |
| 2026-05-04 09:27 | 41.46145 | -1.91968 | 31271 ft | 398 kts | 242° |
| 2026-05-04 09:27 | 41.44934 | -1.95285 | 31017 ft | 399 kts | 241° |
| 2026-05-04 09:28 | 41.43718 | -1.98609 | 30770 ft | 399 kts | 241° |
| 2026-05-04 09:28 | 41.42496 | -2.01933 | 30527 ft | 400 kts | 241° |
| 2026-05-04 09:28 | 41.41268 | -2.05269 | 30280 ft | 401 kts | 241° |
| 2026-05-04 09:28 | 41.40041 | -2.08598 | 30035 ft | 401 kts | 241° |
| 2026-05-04 09:29 | 41.38808 | -2.11942 | 29755 ft | 402 kts | 241° |
| 2026-05-04 09:29 | 41.37573 | -2.15286 | 29466 ft | 404 kts | 241° |
| 2026-05-04 09:29 | 41.36331 | -2.18647 | 29188 ft | 405 kts | 241° |
| 2026-05-04 09:29 | 41.35837 | -2.19984 | 29085 ft | 406 kts | 241° |
| 2026-05-04 09:30 | 41.34964 | -2.22343 | 28866 ft | 407 kts | 241° |
| 2026-05-04 09:30 | 41.33714 | -2.25720 | 28609 ft | 408 kts | 241° |
| 2026-05-04 09:30 | 41.32456 | -2.29116 | 28346 ft | 409 kts | 241° |
| 2026-05-04 09:30 | 41.31214 | -2.32464 | 28073 ft | 409 kts | 241° |
| 2026-05-04 09:31 | 41.29959 | -2.35846 | 27218 ft | 408 kts | 241° |
| 2026-05-04 09:31 | 41.28683 | -2.39281 | 26083 ft | 410 kts | 241° |
| 2026-05-04 09:31 | 41.27433 | -2.42643 | 25031 ft | 411 kts | 241° |
| 2026-05-04 09:31 | 41.26165 | -2.46053 | 23986 ft | 413 kts | 241° |
| 2026-05-04 09:32 | 41.24888 | -2.49477 | 22878 ft | 414 kts | 241° |
| 2026-05-04 09:32 | 41.23619 | -2.52885 | 22039 ft | 409 kts | 241° |
| 2026-05-04 09:34 | 41.15012 | -2.75821 | 16915 ft | 386 kts | 242° |
| 2026-05-04 09:34 | 41.13815 | -2.78990 | 16248 ft | 382 kts | 242° |
| 2026-05-04 09:34 | 41.12629 | -2.82122 | 15602 ft | 379 kts | 242° |
| 2026-05-04 09:34 | 41.11450 | -2.85232 | 14974 ft | 376 kts | 242° |
| 2026-05-04 09:35 | 41.10281 | -2.88318 | 14358 ft | 373 kts | 242° |
| 2026-05-04 09:35 | 41.09121 | -2.91386 | 13772 ft | 370 kts | 243° |
| 2026-05-04 09:35 | 41.07974 | -2.94421 | 13143 ft | 366 kts | 242° |
| 2026-05-04 09:35 | 41.06836 | -2.97419 | 12586 ft | 361 kts | 242° |
| 2026-05-04 09:37 | 40.99633 | -3.16349 | 10771 ft | 286 kts | 242° |
| 2026-05-04 09:37 | 40.98749 | -3.18660 | 10654 ft | 276 kts | 242° |
| 2026-05-04 09:38 | 40.97892 | -3.20905 | 10448 ft | 270 kts | 242° |
| 2026-05-04 09:38 | 40.97050 | -3.23105 | 10225 ft | 267 kts | 242° |
| 2026-05-04 09:38 | 40.96495 | -3.24554 | 10059 ft | 266 kts | 242° |
| 2026-05-04 09:38 | 40.95661 | -3.26723 | 9887 ft | 264 kts | 242° |
| 2026-05-04 09:39 | 40.94827 | -3.28892 | 9759 ft | 264 kts | 242° |
| 2026-05-04 09:39 | 40.93994 | -3.31055 | 9621 ft | 264 kts | 242° |
| 2026-05-04 09:39 | 40.93166 | -3.33213 | 9493 ft | 259 kts | 242° |
| 2026-05-04 09:39 | 40.92367 | -3.35293 | 9345 ft | 249 kts | 243° |
| 2026-05-04 09:40 | 40.91814 | -3.37412 | 9221 ft | 241 kts | 257° |
| 2026-05-04 09:40 | 40.91717 | -3.39593 | 8988 ft | 238 kts | 272° |
| 2026-05-04 09:40 | 40.92011 | -3.41752 | 8544 ft | 238 kts | 278° |
| 2026-05-04 09:40 | 40.92349 | -3.43872 | 8175 ft | 233 kts | 275° |
| 2026-05-04 09:41 | 40.92408 | -3.45972 | 7922 ft | 226 kts | 261° |
| 2026-05-04 09:42 | 40.85711 | -3.56445 | 7423 ft | 217 kts | 214° |
| 2026-05-04 09:43 | 40.84380 | -3.57369 | 7353 ft | 219 kts | 201° |
| 2026-05-04 09:43 | 40.82863 | -3.57666 | 7274 ft | 224 kts | 184° |
| 2026-05-04 09:43 | 40.81296 | -3.57654 | 7199 ft | 225 kts | 184° |
| 2026-05-04 09:43 | 40.79735 | -3.57639 | 7102 ft | 224 kts | 183° |
| 2026-05-04 09:44 | 40.78169 | -3.57630 | 6988 ft | 226 kts | 183° |
| 2026-05-04 09:44 | 40.76596 | -3.57620 | 6752 ft | 226 kts | 184° |
| 2026-05-04 09:44 | 40.75028 | -3.57611 | 6472 ft | 226 kts | 184° |
| 2026-05-04 09:46 | 40.64037 | -3.57546 | 4345 ft | 214 kts | 184° |
| 2026-05-04 09:46 | 40.62573 | -3.57537 | 4061 ft | 206 kts | 184° |
| 2026-05-04 09:46 | 40.61178 | -3.57529 | 3810 ft | 193 kts | 183° |
| 2026-05-04 09:47 | 40.59891 | -3.57521 | 3548 ft | 177 kts | 182° |
| 2026-05-04 09:47 | 40.58698 | -3.57515 | 3287 ft | 166 kts | 181° |
| 2026-05-04 09:49 | 40.51424 | -3.57479 | 1998 ft | 122 kts | 181° |
| 2026-05-04 09:49 | 40.50746 | -3.57464 | 1996 ft | 72 kts | 179° |
| 2026-05-04 09:49 | 40.50341 | -3.57516 | 1991 ft | 52 kts | 201° |
| 2026-05-04 09:51 | 40.49734 | -3.57972 | 2000 ft | 22 kts | 267° |
| 2026-05-04 09:51 | 40.49733 | -3.58166 | 2005 ft | 20 kts | 271° |
| 2026-05-04 09:51 | 40.49736 | -3.58341 | 2013 ft | 18 kts | 271° |
| 2026-05-04 09:51 | 40.49734 | -3.58499 | 2019 ft | 16 kts | 273° |
| 2026-05-04 09:52 | 40.49707 | -3.58621 | 2028 ft | 14 kts | 207° |
| 2026-05-04 09:52 | 40.49645 | -3.58715 | 2022 ft | 15 kts | 259° |
| 2026-05-04 09:52 | 40.49570 | -3.58807 | 2022 ft | 19 kts | 184° |
| 2026-05-04 09:52 | 40.49432 | -3.58814 | 2025 ft | 21 kts | 181° |
| 2026-05-04 09:53 | 40.49282 | -3.58813 | 2022 ft | 22 kts | 179° |
| 2026-05-04 09:53 | 40.49146 | -3.58811 | 2022 ft | 13 kts | 179° |
| 2026-05-04 09:53 | 40.49119 | -3.58896 | 2022 ft | 12 kts | 273° |
| 2026-05-04 09:53 | 40.49119 | -3.58971 | 2025 ft | 2 kts | 270° |
| 2026-05-04 09:54 | 40.49119 | -3.58973 | 2025 ft | 0 kts | 270° |